createdAt,value
2022-12-18T00:00:29.974Z,87.60
2022-12-18T00:01:29.992Z,87.00
2022-12-18T00:02:29.993Z,81.60
2022-12-18T00:03:30.027Z,86.20
2022-12-18T00:04:30.003Z,80.30
2022-12-18T00:05:29.949Z,82.00
2022-12-18T00:06:29.928Z,84.80
2022-12-18T00:07:29.881Z,87.00
2022-12-18T00:08:29.887Z,91.80
2022-12-18T00:09:38.213Z,84.00
2022-12-18T00:10:30.849Z,80.00
2022-12-18T00:11:29.838Z,81.30
2022-12-18T00:12:30.308Z,79.30
2022-12-18T00:13:29.837Z,77.10
2022-12-18T00:14:29.929Z,81.60
2022-12-18T00:15:29.797Z,80.80
2022-12-18T00:16:29.851Z,81.40
2022-12-18T00:17:29.785Z,87.70
2022-12-18T00:18:29.775Z,81.40
2022-12-18T00:19:29.772Z,87.70
2022-12-18T00:20:29.794Z,90.10
2022-12-18T00:21:29.772Z,84.20
2022-12-18T00:22:29.750Z,91.60
2022-12-18T00:23:29.734Z,86.70
2022-12-18T00:24:29.754Z,86.30
2022-12-18T00:25:29.706Z,89.40
2022-12-18T00:26:29.984Z,91.80
2022-12-18T00:27:29.684Z,89.70
2022-12-18T00:28:29.684Z,88.20
2022-12-18T00:29:29.654Z,85.90
2022-12-18T00:30:29.656Z,83.50
2022-12-18T00:31:29.683Z,87.80
2022-12-18T00:32:29.691Z,84.50
2022-12-18T00:33:29.613Z,90.20
2022-12-18T00:34:29.624Z,82.80
2022-12-18T00:35:29.621Z,87.00
2022-12-18T00:36:29.601Z,86.60
2022-12-18T00:37:29.592Z,86.70
2022-12-18T00:38:29.646Z,89.00
2022-12-18T00:39:29.562Z,84.90
2022-12-18T00:40:29.558Z,87.40
2022-12-18T00:41:29.541Z,81.90
2022-12-18T00:42:29.532Z,89.20
2022-12-18T00:43:29.521Z,84.40
2022-12-18T00:44:29.542Z,85.20
2022-12-18T00:45:29.572Z,93.00
2022-12-18T00:46:29.491Z,82.20
2022-12-18T00:47:29.512Z,88.50
2022-12-18T00:48:29.475Z,97.60
2022-12-18T00:49:29.471Z,88.70
2022-12-18T00:50:29.449Z,91.50
2022-12-18T00:51:29.461Z,97.90
2022-12-18T00:52:29.430Z,87.50
2022-12-18T00:53:29.458Z,89.30
2022-12-18T00:54:29.419Z,88.90
2022-12-18T00:55:29.401Z,85.90
2022-12-18T00:56:29.453Z,85.50
2022-12-18T00:57:29.369Z,86.80
2022-12-18T00:58:29.519Z,83.10
2022-12-18T00:59:29.408Z,80.40
2022-12-18T01:00:29.368Z,80.10
2022-12-18T01:01:29.418Z,78.50
2022-12-18T01:02:29.545Z,78.60
2022-12-18T01:03:29.488Z,79.60
2022-12-18T01:04:29.318Z,80.30
2022-12-18T01:05:29.308Z,76.20
2022-12-18T01:06:29.316Z,81.30
2022-12-18T01:07:29.276Z,84.40
2022-12-18T01:08:29.367Z,88.90
2022-12-18T01:09:29.255Z,77.60
2022-12-18T01:10:29.248Z,84.20
2022-12-18T01:11:29.236Z,76.80
2022-12-18T01:12:29.226Z,88.30
2022-12-18T01:13:29.256Z,74.60
2022-12-18T01:14:29.214Z,77.60
2022-12-18T01:15:29.203Z,76.00
2022-12-18T01:16:29.230Z,71.90
2022-12-18T01:17:29.191Z,75.80
2022-12-18T01:18:29.274Z,71.50
2022-12-18T01:19:29.196Z,73.80
2022-12-18T01:20:29.144Z,76.10
2022-12-18T01:21:29.138Z,77.60
2022-12-18T01:22:29.132Z,72.90
2022-12-18T01:23:29.134Z,73.80
2022-12-18T01:24:29.133Z,76.00
2022-12-18T01:25:29.092Z,72.10
2022-12-18T01:26:29.126Z,76.10
2022-12-18T01:27:29.072Z,69.10
2022-12-18T01:28:29.067Z,76.00
2022-12-18T01:29:29.072Z,73.10
2022-12-18T01:30:29.091Z,76.70
2022-12-18T01:31:29.115Z,73.40
2022-12-18T01:32:29.032Z,70.70
2022-12-18T01:33:29.022Z,83.40
2022-12-18T01:34:29.151Z,73.00
2022-12-18T01:35:28.992Z,73.70
2022-12-18T01:36:29.000Z,72.60
2022-12-18T01:37:28.970Z,76.00
2022-12-18T01:38:28.969Z,75.30
2022-12-18T01:39:29.000Z,69.20
2022-12-18T01:40:29.008Z,72.50
2022-12-18T01:41:28.969Z,74.00
2022-12-18T01:42:28.938Z,70.70
2022-12-18T01:43:28.909Z,69.30
2022-12-18T01:44:28.907Z,73.20
2022-12-18T01:45:28.975Z,73.40
2022-12-18T01:46:28.891Z,73.10
2022-12-18T01:47:28.868Z,76.80
2022-12-18T01:48:28.868Z,69.80
2022-12-18T01:49:28.857Z,77.60
2022-12-18T01:50:28.847Z,72.10
2022-12-18T01:51:28.867Z,76.50
2022-12-18T01:52:28.829Z,75.80
2022-12-18T01:53:28.806Z,75.80
2022-12-18T01:54:28.806Z,76.80
2022-12-18T01:55:28.786Z,77.80
2022-12-18T01:56:28.826Z,75.60
2022-12-18T01:57:28.785Z,73.10
2022-12-18T01:58:28.765Z,76.20
2022-12-18T01:59:28.755Z,78.40
2022-12-18T02:00:28.742Z,74.10
2022-12-18T02:01:28.896Z,76.30
2022-12-18T02:02:28.837Z,75.10
2022-12-18T02:03:28.740Z,71.90
2022-12-18T02:04:28.704Z,74.20
2022-12-18T02:05:28.693Z,71.60
2022-12-18T02:06:28.714Z,70.50
2022-12-18T02:07:28.674Z,73.70
2022-12-18T02:08:28.663Z,79.30
2022-12-18T02:09:28.653Z,73.10
2022-12-18T02:10:28.643Z,79.30
2022-12-18T02:11:28.633Z,77.50
2022-12-18T02:12:28.693Z,73.50
2022-12-18T02:13:28.612Z,75.90
2022-12-18T02:14:28.604Z,69.00
2022-12-18T02:15:28.593Z,71.80
2022-12-18T02:16:28.623Z,80.70
2022-12-18T02:17:28.572Z,75.80
2022-12-18T02:18:28.612Z,76.10
2022-12-18T02:19:28.581Z,72.10
2022-12-18T02:20:28.551Z,76.40
2022-12-18T02:21:28.530Z,68.00
2022-12-18T02:22:28.521Z,73.30
2022-12-18T02:23:28.561Z,78.60
2022-12-18T02:24:28.509Z,72.50
2022-12-18T02:25:28.492Z,74.50
2022-12-18T02:26:28.493Z,77.80
2022-12-18T02:27:28.501Z,69.60
2022-12-18T02:28:28.506Z,72.70
2022-12-18T02:29:28.497Z,71.60
2022-12-18T02:30:28.494Z,76.60
2022-12-18T02:31:28.430Z,69.10
2022-12-18T02:32:28.429Z,75.30
2022-12-18T02:33:28.408Z,74.00
2022-12-18T02:34:28.496Z,70.10
2022-12-18T02:35:28.399Z,73.10
2022-12-18T02:36:28.386Z,72.80
2022-12-18T02:37:28.387Z,73.30
2022-12-18T02:38:28.369Z,69.60
2022-12-18T02:39:28.378Z,74.60
2022-12-18T02:40:28.348Z,65.80
2022-12-18T02:41:28.328Z,75.80
2022-12-18T02:42:28.329Z,71.80
2022-12-18T02:43:28.337Z,74.20
2022-12-18T02:44:28.308Z,75.20
2022-12-18T02:45:28.326Z,72.20
2022-12-18T02:46:28.308Z,68.60
2022-12-18T02:47:28.269Z,71.90
2022-12-18T02:48:28.307Z,76.00
2022-12-18T02:49:28.245Z,69.30
2022-12-18T02:50:28.251Z,73.50
2022-12-18T02:51:28.225Z,67.50
2022-12-18T02:52:28.214Z,72.60
2022-12-18T02:53:28.204Z,70.20
2022-12-18T02:54:28.274Z,72.10
2022-12-18T02:55:28.182Z,67.30
2022-12-18T02:56:28.180Z,73.80
2022-12-18T02:57:28.163Z,65.90
2022-12-18T02:58:28.171Z,68.60
2022-12-18T02:59:28.142Z,67.40
2022-12-18T03:00:28.223Z,73.90
2022-12-18T03:01:28.295Z,70.40
2022-12-18T03:02:28.290Z,71.40
2022-12-18T03:03:28.189Z,71.80
2022-12-18T03:04:28.093Z,66.80
2022-12-18T03:05:28.132Z,71.20
2022-12-18T03:06:28.079Z,68.80
2022-12-18T03:07:28.062Z,64.30
2022-12-18T03:08:28.061Z,68.50
2022-12-18T03:09:28.051Z,68.00
2022-12-18T03:10:28.031Z,71.00
2022-12-18T03:11:28.101Z,68.80
2022-12-18T03:12:28.020Z,73.70
2022-12-18T03:13:28.007Z,65.00
2022-12-18T03:14:28.040Z,64.60
2022-12-18T03:15:27.989Z,66.20
2022-12-18T03:16:28.038Z,66.90
2022-12-18T03:17:27.970Z,66.80
2022-12-18T03:18:28.001Z,63.10
2022-12-18T03:19:28.000Z,66.30
2022-12-18T03:20:27.936Z,63.60
2022-12-18T03:21:27.928Z,62.80
2022-12-18T03:22:27.949Z,65.10
2022-12-18T03:23:27.908Z,61.60
2022-12-18T03:24:27.898Z,62.70
2022-12-18T03:25:27.890Z,64.30
2022-12-18T03:26:27.878Z,59.20
2022-12-18T03:27:27.868Z,65.70
2022-12-18T03:28:27.898Z,69.80
2022-12-18T03:29:27.891Z,60.70
2022-12-18T03:30:27.867Z,64.80
2022-12-18T03:31:27.868Z,65.70
2022-12-18T03:32:27.807Z,66.60
2022-12-18T03:33:27.816Z,68.10
2022-12-18T03:34:27.796Z,65.00
2022-12-18T03:35:27.796Z,64.80
2022-12-18T03:36:27.846Z,64.50
2022-12-18T03:37:27.816Z,63.30
2022-12-18T03:38:27.755Z,64.80
2022-12-18T03:39:27.787Z,61.40
2022-12-18T03:40:27.735Z,63.30
2022-12-18T03:41:27.728Z,65.40
2022-12-18T03:42:27.714Z,59.70
2022-12-18T03:43:27.715Z,65.00
2022-12-18T03:44:27.696Z,64.30
2022-12-18T03:45:27.885Z,66.70
2022-12-18T03:46:27.755Z,65.50
2022-12-18T03:47:27.664Z,65.00
2022-12-18T03:48:27.655Z,68.40
2022-12-18T03:49:27.653Z,64.70
2022-12-18T03:50:27.632Z,65.20
2022-12-18T03:51:27.637Z,67.60
2022-12-18T03:52:27.642Z,64.40
2022-12-18T03:53:27.612Z,63.40
2022-12-18T03:54:27.610Z,60.50
2022-12-18T03:55:27.592Z,63.90
2022-12-18T03:56:27.582Z,63.80
2022-12-18T03:57:27.671Z,59.90
2022-12-18T03:58:27.569Z,61.70
2022-12-18T03:59:27.550Z,63.40
2022-12-18T04:00:27.530Z,62.90
2022-12-18T04:01:27.658Z,68.10
2022-12-18T04:02:27.668Z,63.10
2022-12-18T04:03:27.644Z,64.10
2022-12-18T04:04:27.499Z,62.00
2022-12-18T04:05:27.540Z,57.80
2022-12-18T04:06:27.481Z,59.30
2022-12-18T04:07:27.469Z,64.80
2022-12-18T04:08:27.490Z,56.20
2022-12-18T04:09:27.459Z,60.70
2022-12-18T04:10:27.433Z,63.70
2022-12-18T04:11:27.524Z,174.00
2022-12-18T04:12:27.418Z,119.70
2022-12-18T04:13:27.435Z,60.00
2022-12-18T04:14:27.396Z,61.40
2022-12-18T04:15:27.450Z,61.80
2022-12-18T04:16:27.427Z,62.40
2022-12-18T04:17:27.357Z,62.70
2022-12-18T04:18:27.357Z,56.30
2022-12-18T04:19:27.342Z,63.00
2022-12-18T04:20:27.327Z,56.90
2022-12-18T04:21:27.365Z,67.20
2022-12-18T04:22:27.306Z,57.70
2022-12-18T04:23:27.316Z,56.00
2022-12-18T04:24:27.347Z,56.10
2022-12-18T04:25:27.326Z,53.20
2022-12-18T04:26:27.275Z,57.70
2022-12-18T04:27:27.285Z,69.20
2022-12-18T04:28:27.327Z,93.40
2022-12-18T04:29:27.247Z,93.00
2022-12-18T04:30:27.228Z,71.40
2022-12-18T04:31:27.303Z,61.30
2022-12-18T04:32:27.205Z,61.70
2022-12-18T04:33:27.234Z,58.50
2022-12-18T04:34:27.193Z,68.70
2022-12-18T04:35:27.264Z,54.70
2022-12-18T04:36:27.214Z,61.60
2022-12-18T04:37:27.237Z,58.80
2022-12-18T04:38:27.154Z,54.00
2022-12-18T04:39:27.164Z,52.90
2022-12-18T04:40:27.122Z,56.00
2022-12-18T04:41:27.121Z,55.10
2022-12-18T04:42:27.103Z,58.10
2022-12-18T04:43:27.200Z,54.30
2022-12-18T04:44:27.113Z,57.50
2022-12-18T04:45:27.090Z,58.30
2022-12-18T04:46:27.108Z,53.40
2022-12-18T04:47:27.082Z,56.60
2022-12-18T04:48:27.082Z,62.80
2022-12-18T04:49:27.038Z,58.40
2022-12-18T04:50:27.032Z,63.40
2022-12-18T04:51:27.103Z,64.10
2022-12-18T04:52:27.670Z,61.80
2022-12-18T04:53:27.030Z,57.90
2022-12-18T04:54:26.997Z,57.60
2022-12-18T04:55:27.019Z,54.00
2022-12-18T04:56:26.969Z,138.00
2022-12-18T04:57:26.964Z,125.00
2022-12-18T04:58:26.950Z,63.40
2022-12-18T04:59:26.940Z,57.10
2022-12-18T05:00:27.029Z,57.20
2022-12-18T05:01:32.511Z,63.80
2022-12-18T05:02:28.013Z,70.40
2022-12-18T05:03:26.932Z,60.70
2022-12-18T05:04:26.877Z,54.40
2022-12-18T05:05:26.878Z,49.50
2022-12-18T05:06:26.910Z,56.10
2022-12-18T05:07:26.864Z,58.40
2022-12-18T05:08:26.880Z,59.90
2022-12-18T05:09:26.838Z,53.00
2022-12-18T05:10:26.876Z,52.60
2022-12-18T05:11:26.823Z,50.90
2022-12-18T05:12:26.811Z,57.70
2022-12-18T05:13:26.796Z,52.80
2022-12-18T05:14:26.796Z,51.30
2022-12-18T05:15:26.776Z,50.10
2022-12-18T05:16:26.865Z,50.80
2022-12-18T05:17:26.765Z,51.90
2022-12-18T05:18:26.752Z,145.90
2022-12-18T05:19:26.784Z,89.70
2022-12-18T05:20:26.723Z,63.80
2022-12-18T05:21:26.720Z,60.60
2022-12-18T05:22:26.707Z,62.20
2022-12-18T05:23:26.745Z,53.90
2022-12-18T05:24:26.684Z,52.20
2022-12-18T05:25:26.683Z,52.60
2022-12-18T05:26:26.664Z,51.20
2022-12-18T05:27:26.760Z,52.10
2022-12-18T05:28:26.681Z,48.40
2022-12-18T05:29:26.668Z,46.80
2022-12-18T05:30:26.624Z,62.00
2022-12-18T05:31:26.654Z,49.80
2022-12-18T05:32:26.603Z,58.20
2022-12-18T05:33:26.599Z,64.30
2022-12-18T05:34:26.591Z,65.70
2022-12-18T05:35:26.614Z,251.50
2022-12-18T05:36:26.562Z,87.10
2022-12-18T05:37:26.551Z,62.50
2022-12-18T05:38:26.631Z,51.50
2022-12-18T05:39:26.540Z,68.80
2022-12-18T05:40:26.529Z,82.30
2022-12-18T05:41:26.560Z,73.00
2022-12-18T05:42:26.569Z,70.50
2022-12-18T05:43:26.502Z,54.20
2022-12-18T05:44:26.488Z,54.80
2022-12-18T05:45:26.469Z,49.40
2022-12-18T05:46:26.506Z,44.90
2022-12-18T05:47:26.499Z,51.10
2022-12-18T05:48:26.446Z,48.80
2022-12-18T05:49:26.438Z,68.90
2022-12-18T05:50:26.466Z,73.80
2022-12-18T05:51:26.419Z,58.40
2022-12-18T05:52:26.429Z,50.00
2022-12-18T05:53:26.398Z,49.20
2022-12-18T05:54:26.387Z,48.40
2022-12-18T05:55:26.378Z,49.60
2022-12-18T05:56:26.407Z,45.80
2022-12-18T05:57:26.349Z,59.90
2022-12-18T05:58:26.338Z,57.70
2022-12-18T05:59:26.327Z,56.60
2022-12-18T06:00:26.316Z,47.50
2022-12-18T06:01:26.367Z,47.60
2022-12-18T06:02:26.449Z,50.50
2022-12-18T06:03:32.206Z,47.30
2022-12-18T06:04:27.286Z,48.20
2022-12-18T06:05:26.274Z,85.40
2022-12-18T06:06:26.257Z,92.10
2022-12-18T06:07:26.325Z,108.30
2022-12-18T06:08:26.262Z,54.80
2022-12-18T06:09:26.371Z,59.80
2022-12-18T06:10:26.222Z,62.20
2022-12-18T06:11:26.244Z,54.10
2022-12-18T06:12:26.224Z,49.60
2022-12-18T06:13:26.235Z,46.40
2022-12-18T06:14:26.174Z,49.30
2022-12-18T06:15:26.174Z,47.70
2022-12-18T06:16:26.208Z,43.10
2022-12-18T06:17:26.164Z,46.30
2022-12-18T06:18:26.151Z,43.70
2022-12-18T06:19:26.175Z,45.40
2022-12-18T06:20:31.805Z,41.40
2022-12-18T06:21:27.205Z,46.20
2022-12-18T06:22:26.103Z,45.50
2022-12-18T06:23:26.132Z,45.20
2022-12-18T06:24:26.179Z,44.60
2022-12-18T06:25:26.080Z,42.30
2022-12-18T06:26:28.276Z,44.20
2022-12-18T06:27:26.081Z,44.20
2022-12-18T06:28:26.038Z,64.20
2022-12-18T06:29:26.034Z,91.30
2022-12-18T06:30:26.034Z,41.50
2022-12-18T06:31:26.072Z,43.40
2022-12-18T06:32:26.038Z,47.00
2022-12-18T06:33:25.988Z,44.50
2022-12-18T06:34:25.989Z,55.60
2022-12-18T06:35:25.981Z,43.50
2022-12-18T06:36:25.960Z,40.90
2022-12-18T06:37:25.986Z,54.90
2022-12-18T06:38:25.950Z,56.40
2022-12-18T06:39:25.929Z,54.10
2022-12-18T06:40:25.918Z,54.40
2022-12-18T06:41:25.926Z,58.30
2022-12-18T06:42:25.928Z,69.00
2022-12-18T06:43:25.945Z,48.80
2022-12-18T06:44:25.878Z,58.80
2022-12-18T06:45:25.968Z,56.70
2022-12-18T06:46:25.866Z,61.20
2022-12-18T06:47:25.907Z,64.80
2022-12-18T06:48:25.886Z,59.50
2022-12-18T06:49:30.301Z,71.50
2022-12-18T06:50:25.877Z,64.00
2022-12-18T06:51:25.816Z,52.50
2022-12-18T06:52:25.824Z,59.80
2022-12-18T06:53:25.871Z,55.10
2022-12-18T06:54:25.775Z,57.30
2022-12-18T06:55:25.775Z,51.50
2022-12-18T06:56:25.776Z,46.10
2022-12-18T06:57:25.756Z,46.60
2022-12-18T06:58:25.744Z,46.80
2022-12-18T06:59:25.784Z,45.80
2022-12-18T07:00:25.745Z,48.80
2022-12-18T07:01:25.820Z,54.10
2022-12-18T07:02:25.860Z,55.40
2022-12-18T07:03:25.833Z,57.30
2022-12-18T07:04:25.672Z,53.80
2022-12-18T07:05:25.673Z,48.70
2022-12-18T07:06:25.655Z,168.40
2022-12-18T07:07:25.662Z,116.50
2022-12-18T07:08:25.642Z,69.90
2022-12-18T07:09:25.662Z,53.50
2022-12-18T07:10:25.621Z,57.60
2022-12-18T07:11:25.613Z,50.60
2022-12-18T07:12:25.602Z,63.20
2022-12-18T07:13:25.594Z,47.40
2022-12-18T07:14:25.661Z,46.20
2022-12-18T07:15:25.562Z,39.10
2022-12-18T07:16:26.191Z,45.60
2022-12-18T07:17:25.542Z,43.70
2022-12-18T07:18:25.592Z,44.20
2022-12-18T07:19:25.564Z,43.70
2022-12-18T07:20:25.521Z,45.00
2022-12-18T07:21:25.500Z,46.80
2022-12-18T07:22:25.540Z,45.20
2022-12-18T07:23:25.480Z,44.30
2022-12-18T07:24:25.480Z,44.20
2022-12-18T07:25:25.586Z,41.10
2022-12-18T07:26:25.469Z,39.50
2022-12-18T07:27:25.659Z,43.10
2022-12-18T07:28:25.439Z,41.40
2022-12-18T07:29:25.507Z,49.30
2022-12-18T07:30:25.479Z,46.00
2022-12-18T07:31:25.426Z,44.60
2022-12-18T07:32:25.448Z,45.40
2022-12-18T07:33:25.377Z,51.80
2022-12-18T07:34:25.378Z,47.10
2022-12-18T07:35:25.672Z,49.20
2022-12-18T07:36:25.387Z,42.30
2022-12-18T07:37:25.447Z,44.00
2022-12-18T07:38:25.339Z,43.30
2022-12-18T07:39:25.317Z,68.80
2022-12-18T07:40:25.316Z,100.40
2022-12-18T07:41:25.303Z,70.40
2022-12-18T07:42:25.358Z,63.80
2022-12-18T07:43:25.275Z,51.00
2022-12-18T07:44:25.286Z,61.30
2022-12-18T07:45:25.393Z,45.20
2022-12-18T07:46:25.328Z,43.30
2022-12-18T07:47:25.244Z,42.60
2022-12-18T07:48:25.263Z,49.30
2022-12-18T07:49:25.213Z,42.70
2022-12-18T07:50:25.302Z,48.20
2022-12-18T07:51:25.201Z,42.00
2022-12-18T07:52:26.313Z,40.00
2022-12-18T07:53:25.273Z,45.90
2022-12-18T07:54:25.183Z,42.10
2022-12-18T07:55:25.162Z,40.90
2022-12-18T07:56:28.185Z,41.50
2022-12-18T07:57:49.494Z,42.40
2022-12-18T07:58:26.192Z,40.20
2022-12-18T07:59:25.158Z,40.70
2022-12-18T08:00:25.123Z,41.40
2022-12-18T08:01:25.420Z,42.40
2022-12-18T08:02:25.230Z,39.50
2022-12-18T08:03:25.164Z,37.70
2022-12-18T08:04:25.074Z,35.60
2022-12-18T08:05:25.166Z,39.70
2022-12-18T08:06:25.135Z,38.90
2022-12-18T08:07:25.033Z,39.00
2022-12-18T08:08:25.100Z,38.20
2022-12-18T08:09:25.070Z,38.50
2022-12-18T08:10:25.029Z,91.40
2022-12-18T08:11:24.998Z,74.20
2022-12-18T08:12:24.991Z,41.90
2022-12-18T08:13:24.970Z,40.40
2022-12-18T08:14:25.011Z,47.60
2022-12-18T08:15:24.956Z,40.00
2022-12-18T08:16:24.987Z,40.70
2022-12-18T08:17:24.979Z,39.20
2022-12-18T08:18:24.929Z,38.00
2022-12-18T08:19:24.957Z,35.40
2022-12-18T08:20:24.909Z,43.00
2022-12-18T08:21:24.888Z,37.40
2022-12-18T08:22:24.897Z,34.90
2022-12-18T08:23:28.614Z,36.70
2022-12-18T08:24:24.867Z,34.80
2022-12-18T08:25:24.898Z,35.20
2022-12-18T08:26:24.846Z,37.30
2022-12-18T08:27:29.748Z,39.70
2022-12-18T08:28:25.886Z,39.80
2022-12-18T08:29:24.830Z,43.30
2022-12-18T08:30:24.918Z,35.60
2022-12-18T08:31:24.796Z,39.00
2022-12-18T08:32:24.843Z,41.20
2022-12-18T08:33:24.773Z,34.40
2022-12-18T08:34:24.765Z,39.00
2022-12-18T08:35:24.783Z,36.50
2022-12-18T08:36:24.753Z,37.40
2022-12-18T08:37:24.754Z,33.50
2022-12-18T08:38:24.804Z,34.10
2022-12-18T08:39:24.714Z,44.40
2022-12-18T08:40:24.705Z,39.60
2022-12-18T08:41:24.695Z,43.80
2022-12-18T08:42:24.693Z,33.10
2022-12-18T08:43:24.684Z,40.70
2022-12-18T08:44:24.716Z,35.40
2022-12-18T08:45:24.653Z,32.10
2022-12-18T08:46:24.683Z,36.50
2022-12-18T08:47:24.656Z,32.50
2022-12-18T08:48:24.622Z,32.60
2022-12-18T08:49:24.673Z,34.10
2022-12-18T08:50:24.895Z,31.40
2022-12-18T08:51:24.598Z,28.00
2022-12-18T08:52:24.586Z,29.80
2022-12-18T08:53:24.561Z,30.00
2022-12-18T08:54:24.562Z,30.40
2022-12-18T08:55:24.562Z,27.60
2022-12-18T08:56:24.732Z,26.40
2022-12-18T08:57:24.530Z,27.40
2022-12-18T08:58:24.520Z,29.90
2022-12-18T08:59:24.535Z,28.20
2022-12-18T09:00:24.521Z,59.70
2022-12-18T09:01:24.592Z,43.80
2022-12-18T09:02:24.830Z,42.70
2022-12-18T09:03:24.485Z,37.60
2022-12-18T09:04:24.493Z,33.10
2022-12-18T09:05:24.512Z,31.60
2022-12-18T09:06:24.450Z,29.30
2022-12-18T09:07:24.430Z,25.90
2022-12-18T09:08:24.468Z,26.50
2022-12-18T09:09:24.478Z,27.90
2022-12-18T09:10:24.453Z,69.50
2022-12-18T09:11:24.385Z,34.30
2022-12-18T09:12:24.378Z,37.40
2022-12-18T09:13:24.357Z,31.70
2022-12-18T09:14:24.359Z,29.80
2022-12-18T09:15:24.378Z,25.40
2022-12-18T09:16:30.143Z,27.60
2022-12-18T09:17:25.436Z,26.20
2022-12-18T09:18:24.320Z,23.20
2022-12-18T09:19:24.307Z,24.20
2022-12-18T09:20:24.401Z,24.00
2022-12-18T09:21:24.286Z,22.70
2022-12-18T09:22:24.276Z,23.30
2022-12-18T09:23:24.284Z,24.40
2022-12-18T09:24:24.265Z,24.60
2022-12-18T09:25:24.347Z,21.50
2022-12-18T09:26:24.243Z,24.90
2022-12-18T09:27:24.215Z,26.50
2022-12-18T09:28:24.224Z,24.70
2022-12-18T09:29:24.196Z,20.50
2022-12-18T09:30:24.195Z,22.00
2022-12-18T09:31:24.266Z,24.80
2022-12-18T09:32:24.193Z,22.60
2022-12-18T09:33:24.165Z,24.20
2022-12-18T09:34:24.195Z,22.50
2022-12-18T09:35:24.149Z,25.90
2022-12-18T09:36:24.175Z,27.30
2022-12-18T09:37:24.141Z,23.70
2022-12-18T09:38:24.113Z,26.30
2022-12-18T09:39:24.208Z,26.80
2022-12-18T09:40:24.943Z,22.90
2022-12-18T09:41:24.083Z,22.70
2022-12-18T09:42:24.101Z,60.50
2022-12-18T09:43:24.079Z,28.70
2022-12-18T09:44:24.125Z,28.60
2022-12-18T09:45:24.041Z,32.40
2022-12-18T09:46:24.194Z,34.00
2022-12-18T09:47:24.021Z,24.70
2022-12-18T09:48:24.011Z,26.50
2022-12-18T09:49:23.992Z,22.30
2022-12-18T09:50:24.041Z,22.40
2022-12-18T09:51:23.971Z,25.30
2022-12-18T09:52:23.970Z,24.40
2022-12-18T09:53:23.960Z,26.00
2022-12-18T09:54:23.980Z,25.20
2022-12-18T09:55:23.929Z,26.80
2022-12-18T09:56:24.022Z,22.70
2022-12-18T09:57:24.059Z,20.80
2022-12-18T09:58:23.910Z,24.00
2022-12-18T09:59:23.900Z,22.30
2022-12-18T10:00:30.908Z,21.60
2022-12-18T10:01:24.204Z,23.80
2022-12-18T10:02:24.008Z,23.30
2022-12-18T10:03:23.896Z,25.10
2022-12-18T10:04:23.921Z,22.20
2022-12-18T10:05:23.826Z,21.10
2022-12-18T10:06:23.826Z,21.00
2022-12-18T10:07:23.827Z,21.50
2022-12-18T10:08:23.808Z,18.80
2022-12-18T10:09:23.816Z,19.40
2022-12-18T10:10:23.786Z,21.80
2022-12-18T10:11:23.765Z,24.50
2022-12-18T10:13:17.024Z,23.70
2022-12-18T10:14:17.024Z,23.20
2022-12-18T10:15:17.004Z,25.30
2022-12-18T10:16:17.003Z,19.90
2022-12-18T10:17:16.988Z,25.20
2022-12-18T10:18:21.691Z,22.90
2022-12-18T10:19:17.979Z,21.90
2022-12-18T10:20:16.956Z,19.40
2022-12-18T10:21:16.913Z,21.10
2022-12-18T10:22:17.021Z,23.20
2022-12-18T10:23:17.043Z,20.50
2022-12-18T10:24:16.926Z,20.50
2022-12-18T10:25:16.873Z,20.50
2022-12-18T10:26:16.894Z,27.90
2022-12-18T10:27:16.872Z,29.20
2022-12-18T10:28:16.878Z,43.10
2022-12-18T10:29:16.858Z,35.90
2022-12-18T10:30:16.981Z,30.00
2022-12-18T10:31:16.903Z,28.80
2022-12-18T10:32:16.796Z,20.60
2022-12-18T10:33:16.842Z,22.30
2022-12-18T10:34:16.805Z,21.10
2022-12-18T10:35:17.222Z,21.90
2022-12-18T10:36:17.170Z,23.60
2022-12-18T10:37:16.780Z,19.00
2022-12-18T10:38:16.834Z,19.90
2022-12-18T10:39:16.806Z,20.70
2022-12-18T10:40:22.295Z,19.20
2022-12-18T10:41:17.711Z,20.30
2022-12-18T10:42:16.699Z,22.40
2022-12-18T10:43:16.702Z,21.30
2022-12-18T10:44:16.719Z,20.40
2022-12-18T10:45:16.710Z,21.10
2022-12-18T10:46:16.746Z,21.70
2022-12-18T10:47:16.647Z,27.20
2022-12-18T10:48:16.645Z,28.90
2022-12-18T10:49:16.626Z,34.70
2022-12-18T10:50:20.937Z,24.30
2022-12-18T10:51:16.603Z,30.00
2022-12-18T10:52:16.597Z,29.40
2022-12-18T10:53:16.590Z,46.40
2022-12-18T10:54:16.587Z,48.20
2022-12-18T10:55:16.558Z,38.90
2022-12-18T10:56:16.576Z,37.10
2022-12-18T10:57:16.549Z,25.70
2022-12-18T10:58:16.526Z,50.10
2022-12-18T10:59:16.532Z,48.80
2022-12-18T11:00:16.540Z,43.00
2022-12-18T11:01:16.708Z,39.00
2022-12-18T11:02:16.619Z,41.90
2022-12-18T11:03:16.535Z,47.90
2022-12-18T11:04:16.466Z,55.10
2022-12-18T11:05:16.462Z,68.80
2022-12-18T11:06:16.474Z,56.50
2022-12-18T11:07:16.472Z,72.40
2022-12-18T11:08:16.420Z,87.40
2022-12-18T11:09:16.413Z,45.90
2022-12-18T11:10:16.424Z,31.50
2022-12-18T11:11:16.414Z,35.30
2022-12-18T11:12:16.544Z,39.60
2022-12-18T11:13:16.383Z,45.70
2022-12-18T11:14:16.365Z,39.60
2022-12-18T11:15:16.385Z,24.30
2022-12-18T11:16:16.370Z,21.60
2022-12-18T11:17:31.895Z,35.50
2022-12-18T11:18:17.333Z,44.00
2022-12-18T11:19:16.305Z,36.90
2022-12-18T11:20:16.407Z,27.00
2022-12-18T11:21:16.334Z,25.80
2022-12-18T11:22:16.362Z,37.60
2022-12-18T11:23:16.278Z,86.40
2022-12-18T11:24:16.262Z,80.50
2022-12-18T11:25:33.509Z,50.90
2022-12-18T11:26:17.280Z,28.70
2022-12-18T11:27:16.240Z,30.10
2022-12-18T11:28:16.225Z,32.60
2022-12-18T11:29:16.212Z,24.10
2022-12-18T11:30:16.267Z,22.70
2022-12-18T11:31:16.272Z,24.50
2022-12-18T11:32:16.312Z,22.10
2022-12-18T11:33:16.161Z,42.10
2022-12-18T11:34:31.475Z,39.30
2022-12-18T11:35:17.181Z,42.30
2022-12-18T11:36:16.141Z,30.70
2022-12-18T11:37:16.122Z,21.80
2022-12-18T11:38:16.176Z,22.10
2022-12-18T11:39:16.117Z,22.00
2022-12-18T11:40:16.083Z,23.00
2022-12-18T11:41:16.095Z,22.50
2022-12-18T11:42:16.108Z,20.10
2022-12-18T11:43:16.048Z,18.60
2022-12-18T11:44:17.456Z,19.50
2022-12-18T11:45:16.040Z,22.40
2022-12-18T11:46:19.549Z,18.60
2022-12-18T11:47:16.016Z,19.20
2022-12-18T11:48:16.000Z,21.70
2022-12-18T11:49:15.987Z,21.40
2022-12-18T11:50:16.124Z,22.20
2022-12-18T11:51:15.967Z,20.20
2022-12-18T11:52:15.977Z,19.00
2022-12-18T11:53:15.998Z,22.30
2022-12-18T11:54:15.974Z,20.30
2022-12-18T11:55:15.944Z,22.00
2022-12-18T11:56:15.984Z,21.60
2022-12-18T11:57:15.907Z,23.70
2022-12-18T11:58:15.935Z,21.20
2022-12-18T11:59:15.942Z,21.00
2022-12-18T12:00:15.954Z,18.20
2022-12-18T12:01:16.037Z,20.80
2022-12-18T12:02:16.042Z,24.30
2022-12-18T12:03:15.890Z,20.30
2022-12-18T12:04:15.869Z,20.90
2022-12-18T12:05:15.871Z,21.80
2022-12-18T12:06:15.847Z,22.20
2022-12-18T12:07:15.829Z,22.30
2022-12-18T12:08:15.801Z,22.70
2022-12-18T12:09:15.784Z,23.40
2022-12-18T12:10:15.772Z,20.30
2022-12-18T12:11:15.798Z,20.40
2022-12-18T12:12:15.772Z,20.90
2022-12-18T12:13:17.678Z,21.50
2022-12-18T12:14:15.734Z,19.30
2022-12-18T12:15:15.725Z,20.20
2022-12-18T12:16:15.773Z,19.50
2022-12-18T12:17:15.721Z,20.40
2022-12-18T12:18:15.793Z,19.80
2022-12-18T12:19:15.883Z,20.50
2022-12-18T12:20:15.662Z,20.30
2022-12-18T12:21:15.722Z,18.40
2022-12-18T12:22:15.642Z,19.90
2022-12-18T12:23:15.734Z,19.70
2022-12-18T12:24:15.641Z,21.50
2022-12-18T12:25:15.614Z,19.90
2022-12-18T12:26:15.612Z,19.40
2022-12-18T12:27:15.623Z,19.50
2022-12-18T12:28:15.592Z,18.40
2022-12-18T12:29:20.949Z,18.90
2022-12-18T12:30:16.550Z,21.80
2022-12-18T12:31:19.021Z,18.70
2022-12-18T12:32:15.530Z,19.00
2022-12-18T12:33:15.536Z,21.30
2022-12-18T12:34:15.511Z,19.20
2022-12-18T12:35:15.720Z,22.10
2022-12-18T12:36:15.522Z,25.90
2022-12-18T12:37:15.478Z,30.90
2022-12-18T12:38:15.518Z,28.60
2022-12-18T12:39:15.470Z,32.10
2022-12-18T12:40:40.831Z,55.70
2022-12-18T12:41:16.540Z,59.70
2022-12-18T12:42:15.452Z,35.40
2022-12-18T12:43:15.422Z,38.30
2022-12-18T12:44:15.420Z,23.90
2022-12-18T12:45:15.444Z,23.00
2022-12-18T12:46:15.507Z,22.00
2022-12-18T12:47:15.412Z,19.90
2022-12-18T12:48:15.368Z,20.20
2022-12-18T12:49:16.502Z,17.80
2022-12-18T12:50:15.374Z,23.00
2022-12-18T12:51:15.351Z,23.90
2022-12-18T12:52:15.337Z,22.80
2022-12-18T12:53:15.328Z,22.70